sensor_id;sensor_type;location;lat;lon;timestamp;temperature;humidity
11908;DHT22;6014;47.690;9.130;2023-07-13T00:00:16;18.20;99.90
11908;DHT22;6014;47.690;9.130;2023-07-13T00:02:46;18.20;99.90
11908;DHT22;6014;47.690;9.130;2023-07-13T00:05:14;18.20;99.90
11908;DHT22;6014;47.690;9.130;2023-07-13T00:07:42;18.20;99.90
11908;DHT22;6014;47.690;9.130;2023-07-13T00:10:13;18.20;99.90
11908;DHT22;6014;47.690;9.130;2023-07-13T00:12:43;18.20;99.90
11908;DHT22;6014;47.690;9.130;2023-07-13T00:15:14;18.10;99.90
11908;DHT22;6014;47.690;9.130;2023-07-13T00:17:44;18.00;99.90
11908;DHT22;6014;47.690;9.130;2023-07-13T00:20:12;18.00;99.90
11908;DHT22;6014;47.690;9.130;2023-07-13T00:22:40;18.10;99.90
11908;DHT22;6014;47.690;9.130;2023-07-13T00:25:17;18.20;99.90
11908;DHT22;6014;47.690;9.130;2023-07-13T00:27:47;18.20;99.90
11908;DHT22;6014;47.690;9.130;2023-07-13T00:30:17;18.20;99.90
11908;DHT22;6014;47.690;9.130;2023-07-13T00:32:45;18.20;99.90
11908;DHT22;6014;47.690;9.130;2023-07-13T00:35:14;18.30;99.90
11908;DHT22;6014;47.690;9.130;2023-07-13T00:37:43;18.20;99.90
11908;DHT22;6014;47.690;9.130;2023-07-13T00:40:13;18.30;99.90
11908;DHT22;6014;47.690;9.130;2023-07-13T00:42:42;18.20;99.90
11908;DHT22;6014;47.690;9.130;2023-07-13T00:48:50;18.20;99.90
11908;DHT22;6014;47.690;9.130;2023-07-13T00:51:23;18.30;99.90
11908;DHT22;6014;47.690;9.130;2023-07-13T00:53:54;18.30;99.90
11908;DHT22;6014;47.690;9.130;2023-07-13T00:56:25;18.20;99.90
11908;DHT22;6014;47.690;9.130;2023-07-13T00:58:55;18.20;99.90
11908;DHT22;6014;47.690;9.130;2023-07-13T01:01:25;18.20;99.90
11908;DHT22;6014;47.690;9.130;2023-07-13T01:03:56;18.10;99.90
11908;DHT22;6014;47.690;9.130;2023-07-13T01:06:25;18.10;99.90
11908;DHT22;6014;47.690;9.130;2023-07-13T01:08:53;18.00;99.90
11908;DHT22;6014;47.690;9.130;2023-07-13T01:11:22;18.00;99.90
11908;DHT22;6014;47.690;9.130;2023-07-13T01:13:51;17.90;99.90
11908;DHT22;6014;47.690;9.130;2023-07-13T01:16:24;17.90;99.90
11908;DHT22;6014;47.690;9.130;2023-07-13T01:18:56;18.00;99.90
11908;DHT22;6014;47.690;9.130;2023-07-13T01:21:33;18.00;99.90
11908;DHT22;6014;47.690;9.130;2023-07-13T01:24:01;18.00;99.90
11908;DHT22;6014;47.690;9.130;2023-07-13T01:26:30;18.00;99.90
11908;DHT22;6014;47.690;9.130;2023-07-13T01:28:58;18.00;99.90
11908;DHT22;6014;47.690;9.130;2023-07-13T01:31:26;18.10;99.90
11908;DHT22;6014;47.690;9.130;2023-07-13T01:33:55;18.10;99.90
11908;DHT22;6014;47.690;9.130;2023-07-13T01:36:24;18.10;99.90
11908;DHT22;6014;47.690;9.130;2023-07-13T01:38:54;18.10;99.90
11908;DHT22;6014;47.690;9.130;2023-07-13T01:41:22;18.20;99.90
11908;DHT22;6014;47.690;9.130;2023-07-13T01:43:50;18.10;99.90
11908;DHT22;6014;47.690;9.130;2023-07-13T01:46:19;18.10;99.90
11908;DHT22;6014;47.690;9.130;2023-07-13T01:48:50;18.00;99.90
11908;DHT22;6014;47.690;9.130;2023-07-13T01:51:20;17.90;99.90
11908;DHT22;6014;47.690;9.130;2023-07-13T01:53:48;17.80;99.90
11908;DHT22;6014;47.690;9.130;2023-07-13T01:56:19;17.70;99.90
11908;DHT22;6014;47.690;9.130;2023-07-13T01:58:48;17.70;99.90
11908;DHT22;6014;47.690;9.130;2023-07-13T02:01:16;17.70;99.90
11908;DHT22;6014;47.690;9.130;2023-07-13T02:03:45;17.70;99.90
11908;DHT22;6014;47.690;9.130;2023-07-13T02:06:13;17.70;99.90
11908;DHT22;6014;47.690;9.130;2023-07-13T02:08:41;17.60;99.90
11908;DHT22;6014;47.690;9.130;2023-07-13T02:11:12;17.60;99.90
11908;DHT22;6014;47.690;9.130;2023-07-13T02:13:42;17.60;99.90
11908;DHT22;6014;47.690;9.130;2023-07-13T02:16:10;17.40;99.90
11908;DHT22;6014;47.690;9.130;2023-07-13T02:18:39;17.30;99.90
11908;DHT22;6014;47.690;9.130;2023-07-13T02:21:07;17.30;99.90
11908;DHT22;6014;47.690;9.130;2023-07-13T02:23:37;17.30;99.90
11908;DHT22;6014;47.690;9.130;2023-07-13T02:26:05;17.30;99.90
11908;DHT22;6014;47.690;9.130;2023-07-13T02:28:33;17.40;99.90
11908;DHT22;6014;47.690;9.130;2023-07-13T02:31:07;17.30;99.90
11908;DHT22;6014;47.690;9.130;2023-07-13T02:33:37;17.40;99.90
11908;DHT22;6014;47.690;9.130;2023-07-13T02:36:14;17.40;99.90
11908;DHT22;6014;47.690;9.130;2023-07-13T02:38:43;17.50;99.90
11908;DHT22;6014;47.690;9.130;2023-07-13T02:41:12;17.50;99.90
11908;DHT22;6014;47.690;9.130;2023-07-13T02:43:42;17.60;99.90
11908;DHT22;6014;47.690;9.130;2023-07-13T02:46:13;17.70;99.90
11908;DHT22;6014;47.690;9.130;2023-07-13T02:48:41;17.70;99.90
11908;DHT22;6014;47.690;9.130;2023-07-13T02:51:09;17.80;99.90
11908;DHT22;6014;47.690;9.130;2023-07-13T02:53:38;17.80;99.90
11908;DHT22;6014;47.690;9.130;2023-07-13T02:56:06;17.80;99.90
11908;DHT22;6014;47.690;9.130;2023-07-13T02:58:39;17.90;99.90
11908;DHT22;6014;47.690;9.130;2023-07-13T03:01:09;17.90;99.90
11908;DHT22;6014;47.690;9.130;2023-07-13T03:03:39;18.00;99.90
11908;DHT22;6014;47.690;9.130;2023-07-13T03:06:08;18.00;99.90
11908;DHT22;6014;47.690;9.130;2023-07-13T03:08:37;18.00;99.90
11908;DHT22;6014;47.690;9.130;2023-07-13T03:11:08;18.00;99.90
11908;DHT22;6014;47.690;9.130;2023-07-13T03:13:39;18.10;99.90
11908;DHT22;6014;47.690;9.130;2023-07-13T03:16:09;18.10;99.90
11908;DHT22;6014;47.690;9.130;2023-07-13T03:18:42;18.10;99.90
11908;DHT22;6014;47.690;9.130;2023-07-13T03:21:11;18.20;99.90
11908;DHT22;6014;47.690;9.130;2023-07-13T03:23:39;18.20;99.90
11908;DHT22;6014;47.690;9.130;2023-07-13T03:26:12;18.20;99.90
11908;DHT22;6014;47.690;9.130;2023-07-13T03:28:42;18.10;99.90
11908;DHT22;6014;47.690;9.130;2023-07-13T03:31:13;18.20;99.90
11908;DHT22;6014;47.690;9.130;2023-07-13T03:33:44;18.20;99.90
11908;DHT22;6014;47.690;9.130;2023-07-13T03:36:15;18.20;99.90
11908;DHT22;6014;47.690;9.130;2023-07-13T03:38:46;18.20;99.90
11908;DHT22;6014;47.690;9.130;2023-07-13T03:41:15;18.10;99.90
11908;DHT22;6014;47.690;9.130;2023-07-13T03:43:43;18.10;99.90
11908;DHT22;6014;47.690;9.130;2023-07-13T03:46:12;18.10;99.90
11908;DHT22;6014;47.690;9.130;2023-07-13T03:48:40;18.10;99.90
11908;DHT22;6014;47.690;9.130;2023-07-13T03:51:13;18.10;99.90
11908;DHT22;6014;47.690;9.130;2023-07-13T03:53:44;18.10;99.90
11908;DHT22;6014;47.690;9.130;2023-07-13T03:56:13;18.10;99.90
11908;DHT22;6014;47.690;9.130;2023-07-13T03:58:44;18.20;99.90
11908;DHT22;6014;47.690;9.130;2023-07-13T04:01:14;18.20;99.90
11908;DHT22;6014;47.690;9.130;2023-07-13T04:03:44;18.30;99.90
11908;DHT22;6014;47.690;9.130;2023-07-13T04:06:17;18.30;99.90
11908;DHT22;6014;47.690;9.130;2023-07-13T04:08:50;18.30;99.90
11908;DHT22;6014;47.690;9.130;2023-07-13T04:11:21;18.30;99.90
11908;DHT22;6014;47.690;9.130;2023-07-13T04:13:51;18.20;99.90
11908;DHT22;6014;47.690;9.130;2023-07-13T04:16:22;18.10;99.90
11908;DHT22;6014;47.690;9.130;2023-07-13T04:18:51;18.20;99.90
11908;DHT22;6014;47.690;9.130;2023-07-13T04:21:23;18.20;99.90
11908;DHT22;6014;47.690;9.130;2023-07-13T04:23:51;18.20;99.90
11908;DHT22;6014;47.690;9.130;2023-07-13T04:26:21;18.10;99.90
11908;DHT22;6014;47.690;9.130;2023-07-13T04:28:50;18.10;99.90
11908;DHT22;6014;47.690;9.130;2023-07-13T04:31:19;18.00;99.90
11908;DHT22;6014;47.690;9.130;2023-07-13T04:33:48;18.10;99.90
11908;DHT22;6014;47.690;9.130;2023-07-13T04:36:28;18.00;99.90
11908;DHT22;6014;47.690;9.130;2023-07-13T04:38:56;18.00;99.90
11908;DHT22;6014;47.690;9.130;2023-07-13T04:41:24;18.00;99.90
11908;DHT22;6014;47.690;9.130;2023-07-13T04:43:52;18.00;99.90
11908;DHT22;6014;47.690;9.130;2023-07-13T04:46:28;18.00;99.90
11908;DHT22;6014;47.690;9.130;2023-07-13T04:48:57;18.00;99.90
11908;DHT22;6014;47.690;9.130;2023-07-13T04:51:25;18.10;99.90
11908;DHT22;6014;47.690;9.130;2023-07-13T04:53:55;18.20;99.90
11908;DHT22;6014;47.690;9.130;2023-07-13T04:56:27;18.20;99.90
11908;DHT22;6014;47.690;9.130;2023-07-13T04:58:55;18.30;99.90
11908;DHT22;6014;47.690;9.130;2023-07-13T05:01:25;18.30;99.90
11908;DHT22;6014;47.690;9.130;2023-07-13T05:03:54;18.30;99.90
11908;DHT22;6014;47.690;9.130;2023-07-13T05:06:25;18.30;99.90
11908;DHT22;6014;47.690;9.130;2023-07-13T05:08:55;18.40;99.90
11908;DHT22;6014;47.690;9.130;2023-07-13T05:11:25;18.50;99.90
11908;DHT22;6014;47.690;9.130;2023-07-13T05:13:54;18.40;99.90
11908;DHT22;6014;47.690;9.130;2023-07-13T05:16:22;18.40;99.90
11908;DHT22;6014;47.690;9.130;2023-07-13T05:18:50;18.40;99.90
11908;DHT22;6014;47.690;9.130;2023-07-13T05:21:18;18.50;99.90
11908;DHT22;6014;47.690;9.130;2023-07-13T05:23:47;18.50;99.90
11908;DHT22;6014;47.690;9.130;2023-07-13T05:26:17;18.60;99.90
11908;DHT22;6014;47.690;9.130;2023-07-13T05:28:46;18.60;99.90
11908;DHT22;6014;47.690;9.130;2023-07-13T05:31:14;18.50;99.90
11908;DHT22;6014;47.690;9.130;2023-07-13T05:33:43;18.60;99.90
11908;DHT22;6014;47.690;9.130;2023-07-13T05:36:11;18.60;99.90
11908;DHT22;6014;47.690;9.130;2023-07-13T05:38:39;18.70;99.90
11908;DHT22;6014;47.690;9.130;2023-07-13T05:41:08;18.80;99.90
11908;DHT22;6014;47.690;9.130;2023-07-13T05:43:38;19.00;99.90
11908;DHT22;6014;47.690;9.130;2023-07-13T05:46:06;19.00;99.90
11908;DHT22;6014;47.690;9.130;2023-07-13T05:48:35;19.00;99.90
11908;DHT22;6014;47.690;9.130;2023-07-13T05:51:03;19.00;99.90
11908;DHT22;6014;47.690;9.130;2023-07-13T05:53:31;19.10;99.90
11908;DHT22;6014;47.690;9.130;2023-07-13T05:56:00;19.00;99.90
11908;DHT22;6014;47.690;9.130;2023-07-13T05:58:29;19.20;99.90
11908;DHT22;6014;47.690;9.130;2023-07-13T06:01:06;19.10;99.90
11908;DHT22;6014;47.690;9.130;2023-07-13T06:03:38;19.00;99.90
11908;DHT22;6014;47.690;9.130;2023-07-13T06:06:08;18.90;99.90
11908;DHT22;6014;47.690;9.130;2023-07-13T06:08:38;18.80;99.90
11908;DHT22;6014;47.690;9.130;2023-07-13T06:11:09;18.80;99.90
11908;DHT22;6014;47.690;9.130;2023-07-13T06:13:42;18.80;99.90
11908;DHT22;6014;47.690;9.130;2023-07-13T06:16:14;18.70;99.90
11908;DHT22;6014;47.690;9.130;2023-07-13T06:18:43;18.60;99.90
11908;DHT22;6014;47.690;9.130;2023-07-13T06:21:12;18.50;99.90
11908;DHT22;6014;47.690;9.130;2023-07-13T06:23:43;18.50;99.90
11908;DHT22;6014;47.690;9.130;2023-07-13T06:26:15;18.30;99.90
11908;DHT22;6014;47.690;9.130;2023-07-13T06:28:44;18.30;99.90
11908;DHT22;6014;47.690;9.130;2023-07-13T06:31:15;18.40;99.90
11908;DHT22;6014;47.690;9.130;2023-07-13T06:33:44;18.40;99.90
11908;DHT22;6014;47.690;9.130;2023-07-13T06:36:12;18.30;99.90
11908;DHT22;6014;47.690;9.130;2023-07-13T06:38:40;18.40;99.90
11908;DHT22;6014;47.690;9.130;2023-07-13T06:41:08;18.30;99.90
11908;DHT22;6014;47.690;9.130;2023-07-13T06:43:37;18.20;99.90
11908;DHT22;6014;47.690;9.130;2023-07-13T06:46:07;18.20;99.90
11908;DHT22;6014;47.690;9.130;2023-07-13T06:48:37;18.30;99.90
11908;DHT22;6014;47.690;9.130;2023-07-13T06:51:05;18.30;99.90
11908;DHT22;6014;47.690;9.130;2023-07-13T06:53:34;18.30;99.90
11908;DHT22;6014;47.690;9.130;2023-07-13T06:56:02;18.30;99.90
11908;DHT22;6014;47.690;9.130;2023-07-13T06:58:34;18.10;99.90
11908;DHT22;6014;47.690;9.130;2023-07-13T07:01:03;18.10;99.90
11908;DHT22;6014;47.690;9.130;2023-07-13T07:03:34;17.90;99.90
11908;DHT22;6014;47.690;9.130;2023-07-13T07:06:12;17.50;99.90
11908;DHT22;6014;47.690;9.130;2023-07-13T07:08:51;17.40;99.90
11908;DHT22;6014;47.690;9.130;2023-07-13T07:11:22;17.10;99.90
11908;DHT22;6014;47.690;9.130;2023-07-13T07:13:52;16.90;99.90
11908;DHT22;6014;47.690;9.130;2023-07-13T07:16:21;16.70;99.90
11908;DHT22;6014;47.690;9.130;2023-07-13T07:18:56;16.60;99.90
11908;DHT22;6014;47.690;9.130;2023-07-13T07:21:25;16.70;99.90
11908;DHT22;6014;47.690;9.130;2023-07-13T07:23:53;16.60;99.90
11908;DHT22;6014;47.690;9.130;2023-07-13T07:26:22;16.60;99.90
11908;DHT22;6014;47.690;9.130;2023-07-13T07:29:04;16.60;99.90
11908;DHT22;6014;47.690;9.130;2023-07-13T07:31:35;16.70;99.90
11908;DHT22;6014;47.690;9.130;2023-07-13T07:34:07;16.60;99.90
11908;DHT22;6014;47.690;9.130;2023-07-13T07:36:41;16.60;99.90
11908;DHT22;6014;47.690;9.130;2023-07-13T07:39:12;16.60;99.90
11908;DHT22;6014;47.690;9.130;2023-07-13T07:41:41;16.60;99.90
11908;DHT22;6014;47.690;9.130;2023-07-13T07:44:23;16.60;99.90
11908;DHT22;6014;47.690;9.130;2023-07-13T07:47:01;16.70;99.90
11908;DHT22;6014;47.690;9.130;2023-07-13T07:49:30;16.70;99.90
11908;DHT22;6014;47.690;9.130;2023-07-13T07:52:02;16.80;99.90
11908;DHT22;6014;47.690;9.130;2023-07-13T07:54:30;17.00;99.90
11908;DHT22;6014;47.690;9.130;2023-07-13T07:57:21;17.10;99.90
11908;DHT22;6014;47.690;9.130;2023-07-13T07:59:58;17.20;99.90
11908;DHT22;6014;47.690;9.130;2023-07-13T08:02:35;17.30;99.90
11908;DHT22;6014;47.690;9.130;2023-07-13T08:05:07;17.40;99.90
11908;DHT22;6014;47.690;9.130;2023-07-13T08:07:40;17.50;99.90
11908;DHT22;6014;47.690;9.130;2023-07-13T08:10:09;17.40;99.90
11908;DHT22;6014;47.690;9.130;2023-07-13T08:12:39;17.30;99.90
11908;DHT22;6014;47.690;9.130;2023-07-13T08:15:13;17.10;99.90
11908;DHT22;6014;47.690;9.130;2023-07-13T08:17:42;17.20;99.90
11908;DHT22;6014;47.690;9.130;2023-07-13T08:20:11;17.30;99.90
11908;DHT22;6014;47.690;9.130;2023-07-13T08:22:41;17.50;99.90
11908;DHT22;6014;47.690;9.130;2023-07-13T08:25:09;17.50;99.90
11908;DHT22;6014;47.690;9.130;2023-07-13T08:27:38;17.40;99.90
11908;DHT22;6014;47.690;9.130;2023-07-13T08:30:07;17.50;99.90
11908;DHT22;6014;47.690;9.130;2023-07-13T08:32:36;17.80;99.90
11908;DHT22;6014;47.690;9.130;2023-07-13T08:35:06;18.00;99.90
11908;DHT22;6014;47.690;9.130;2023-07-13T08:37:34;18.30;99.90
11908;DHT22;6014;47.690;9.130;2023-07-13T08:40:05;18.60;99.90
11908;DHT22;6014;47.690;9.130;2023-07-13T08:42:37;18.80;99.90
11908;DHT22;6014;47.690;9.130;2023-07-13T08:45:14;18.80;99.90
11908;DHT22;6014;47.690;9.130;2023-07-13T08:47:49;19.00;99.90
11908;DHT22;6014;47.690;9.130;2023-07-13T08:50:35;19.60;99.90
11908;DHT22;6014;47.690;9.130;2023-07-13T08:53:46;20.80;99.90
11908;DHT22;6014;47.690;9.130;2023-07-13T08:56:20;21.40;99.90
11908;DHT22;6014;47.690;9.130;2023-07-13T08:58:53;22.10;99.90
11908;DHT22;6014;47.690;9.130;2023-07-13T09:01:28;22.30;99.90
11908;DHT22;6014;47.690;9.130;2023-07-13T09:04:05;22.70;99.90
11908;DHT22;6014;47.690;9.130;2023-07-13T09:06:55;23.40;99.90
11908;DHT22;6014;47.690;9.130;2023-07-13T09:09:35;23.20;99.90
11908;DHT22;6014;47.690;9.130;2023-07-13T09:12:15;24.00;99.90
11908;DHT22;6014;47.690;9.130;2023-07-13T09:14:48;23.50;99.90
11908;DHT22;6014;47.690;9.130;2023-07-13T09:17:24;22.30;99.90
11908;DHT22;6014;47.690;9.130;2023-07-13T09:19:58;22.10;99.90
11908;DHT22;6014;47.690;9.130;2023-07-13T09:22:33;22.10;99.90
11908;DHT22;6014;47.690;9.130;2023-07-13T09:25:05;22.10;99.90
11908;DHT22;6014;47.690;9.130;2023-07-13T09:27:47;22.20;99.90
11908;DHT22;6014;47.690;9.130;2023-07-13T09:30:33;22.50;99.90
11908;DHT22;6014;47.690;9.130;2023-07-13T09:33:02;22.90;99.90
11908;DHT22;6014;47.690;9.130;2023-07-13T09:35:31;22.50;99.90
11908;DHT22;6014;47.690;9.130;2023-07-13T09:38:12;22.90;99.90
11908;DHT22;6014;47.690;9.130;2023-07-13T09:40:53;23.80;99.90
11908;DHT22;6014;47.690;9.130;2023-07-13T09:43:29;24.60;99.90
11908;DHT22;6014;47.690;9.130;2023-07-13T09:45:58;24.20;99.90
11908;DHT22;6014;47.690;9.130;2023-07-13T09:48:34;23.90;99.90
11908;DHT22;6014;47.690;9.130;2023-07-13T09:51:10;23.60;99.90
11908;DHT22;6014;47.690;9.130;2023-07-13T09:53:42;23.40;99.90
11908;DHT22;6014;47.690;9.130;2023-07-13T09:56:20;23.00;99.90
11908;DHT22;6014;47.690;9.130;2023-07-13T09:58:50;22.50;99.90
11908;DHT22;6014;47.690;9.130;2023-07-13T10:01:31;22.10;99.90
11908;DHT22;6014;47.690;9.130;2023-07-13T10:04:02;21.90;99.90
11908;DHT22;6014;47.690;9.130;2023-07-13T10:06:39;21.80;99.90
11908;DHT22;6014;47.690;9.130;2023-07-13T10:09:09;21.70;99.90
11908;DHT22;6014;47.690;9.130;2023-07-13T10:11:41;21.30;99.90
11908;DHT22;6014;47.690;9.130;2023-07-13T10:14:13;21.50;99.90
11908;DHT22;6014;47.690;9.130;2023-07-13T10:16:44;21.50;99.90
11908;DHT22;6014;47.690;9.130;2023-07-13T10:19:19;21.70;99.90
11908;DHT22;6014;47.690;9.130;2023-07-13T10:21:54;22.00;99.90
11908;DHT22;6014;47.690;9.130;2023-07-13T10:24:24;22.00;99.90
11908;DHT22;6014;47.690;9.130;2023-07-13T10:26:58;22.20;99.90
11908;DHT22;6014;47.690;9.130;2023-07-13T10:29:36;22.20;99.90
11908;DHT22;6014;47.690;9.130;2023-07-13T10:32:09;22.40;99.90
11908;DHT22;6014;47.690;9.130;2023-07-13T10:34:38;22.50;99.90
11908;DHT22;6014;47.690;9.130;2023-07-13T10:37:15;22.60;99.90
11908;DHT22;6014;47.690;9.130;2023-07-13T10:39:47;22.60;99.90
11908;DHT22;6014;47.690;9.130;2023-07-13T10:42:24;22.50;99.90
11908;DHT22;6014;47.690;9.130;2023-07-13T10:44:55;22.40;99.90
11908;DHT22;6014;47.690;9.130;2023-07-13T10:47:24;22.70;99.90
11908;DHT22;6014;47.690;9.130;2023-07-13T10:49:56;23.60;99.90
11908;DHT22;6014;47.690;9.130;2023-07-13T10:52:42;23.70;99.90
11908;DHT22;6014;47.690;9.130;2023-07-13T10:55:36;23.70;99.90
11908;DHT22;6014;47.690;9.130;2023-07-13T10:58:18;23.20;99.90
11908;DHT22;6014;47.690;9.130;2023-07-13T11:00:51;23.20;99.90
11908;DHT22;6014;47.690;9.130;2023-07-13T11:03:50;23.10;99.90
11908;DHT22;6014;47.690;9.130;2023-07-13T11:06:37;22.90;99.90
11908;DHT22;6014;47.690;9.130;2023-07-13T11:09:32;22.50;99.90
11908;DHT22;6014;47.690;9.130;2023-07-13T11:12:08;22.40;99.90
11908;DHT22;6014;47.690;9.130;2023-07-13T11:15:02;22.50;99.90
11908;DHT22;6014;47.690;9.130;2023-07-13T11:17:38;22.90;99.90
11908;DHT22;6014;47.690;9.130;2023-07-13T11:20:31;22.70;99.90
11908;DHT22;6014;47.690;9.130;2023-07-13T11:23:32;22.40;99.90
11908;DHT22;6014;47.690;9.130;2023-07-13T11:26:00;23.60;99.80
11908;DHT22;6014;47.690;9.130;2023-07-13T11:28:31;24.60;98.50
11908;DHT22;6014;47.690;9.130;2023-07-13T11:31:03;24.30;98.40
11908;DHT22;6014;47.690;9.130;2023-07-13T11:34:08;23.90;99.50
11908;DHT22;6014;47.690;9.130;2023-07-13T11:36:44;23.60;99.10
11908;DHT22;6014;47.690;9.130;2023-07-13T11:39:19;23.70;99.40
11908;DHT22;6014;47.690;9.130;2023-07-13T11:41:51;23.60;98.70
11908;DHT22;6014;47.690;9.130;2023-07-13T11:44:23;23.50;99.90
11908;DHT22;6014;47.690;9.130;2023-07-13T11:46:54;23.90;99.80
11908;DHT22;6014;47.690;9.130;2023-07-13T11:49:26;24.00;99.60
11908;DHT22;6014;47.690;9.130;2023-07-13T11:52:00;23.70;99.80
11908;DHT22;6014;47.690;9.130;2023-07-13T11:54:31;24.50;98.30
11908;DHT22;6014;47.690;9.130;2023-07-13T11:57:02;24.00;97.90
11908;DHT22;6014;47.690;9.130;2023-07-13T11:59:38;25.30;98.10
11908;DHT22;6014;47.690;9.130;2023-07-13T12:02:14;24.60;97.40
11908;DHT22;6014;47.690;9.130;2023-07-13T12:04:45;24.80;98.60
11908;DHT22;6014;47.690;9.130;2023-07-13T12:07:29;24.80;98.60
11908;DHT22;6014;47.690;9.130;2023-07-13T12:10:01;25.30;97.60
11908;DHT22;6014;47.690;9.130;2023-07-13T12:12:29;25.70;97.40
11908;DHT22;6014;47.690;9.130;2023-07-13T12:14:58;24.70;98.00
11908;DHT22;6014;47.690;9.130;2023-07-13T12:17:27;24.70;97.10
11908;DHT22;6014;47.690;9.130;2023-07-13T12:19:57;25.40;97.50
11908;DHT22;6014;47.690;9.130;2023-07-13T12:22:26;24.70;97.40
11908;DHT22;6014;47.690;9.130;2023-07-13T12:24:56;24.70;98.00
11908;DHT22;6014;47.690;9.130;2023-07-13T12:27:27;24.90;98.30
11908;DHT22;6014;47.690;9.130;2023-07-13T12:30:01;25.00;97.90
11908;DHT22;6014;47.690;9.130;2023-07-13T12:32:32;24.30;98.10
11908;DHT22;6014;47.690;9.130;2023-07-13T12:35:14;24.60;97.80
11908;DHT22;6014;47.690;9.130;2023-07-13T12:37:46;25.40;99.30
11908;DHT22;6014;47.690;9.130;2023-07-13T12:40:15;24.50;97.80
11908;DHT22;6014;47.690;9.130;2023-07-13T12:43:11;24.30;99.40
11908;DHT22;6014;47.690;9.130;2023-07-13T12:45:55;24.80;99.00
11908;DHT22;6014;47.690;9.130;2023-07-13T12:48:25;25.30;98.60
11908;DHT22;6014;47.690;9.130;2023-07-13T12:51:14;25.20;98.00
11908;DHT22;6014;47.690;9.130;2023-07-13T12:53:47;24.80;99.00
11908;DHT22;6014;47.690;9.130;2023-07-13T12:56:21;25.20;99.10
11908;DHT22;6014;47.690;9.130;2023-07-13T12:58:56;25.60;98.40
11908;DHT22;6014;47.690;9.130;2023-07-13T13:01:27;25.70;97.70
11908;DHT22;6014;47.690;9.130;2023-07-13T13:03:57;26.50;97.30
11908;DHT22;6014;47.690;9.130;2023-07-13T13:06:34;26.90;95.80
11908;DHT22;6014;47.690;9.130;2023-07-13T13:09:05;25.50;96.40
11908;DHT22;6014;47.690;9.130;2023-07-13T13:11:40;25.00;96.80
11908;DHT22;6014;47.690;9.130;2023-07-13T13:14:09;25.20;97.70
11908;DHT22;6014;47.690;9.130;2023-07-13T13:16:45;25.50;98.00
11908;DHT22;6014;47.690;9.130;2023-07-13T13:19:20;25.10;98.10
11908;DHT22;6014;47.690;9.130;2023-07-13T13:21:52;26.40;97.10
11908;DHT22;6014;47.690;9.130;2023-07-13T13:24:22;27.20;96.20
11908;DHT22;6014;47.690;9.130;2023-07-13T13:26:52;27.80;95.00
11908;DHT22;6014;47.690;9.130;2023-07-13T13:29:24;27.10;95.00
11908;DHT22;6014;47.690;9.130;2023-07-13T13:31:54;26.70;96.40
11908;DHT22;6014;47.690;9.130;2023-07-13T13:34:30;26.70;95.60
11908;DHT22;6014;47.690;9.130;2023-07-13T13:37:00;26.90;94.70
11908;DHT22;6014;47.690;9.130;2023-07-13T13:39:33;27.50;94.80
11908;DHT22;6014;47.690;9.130;2023-07-13T13:42:03;27.00;92.90
11908;DHT22;6014;47.690;9.130;2023-07-13T13:44:37;27.60;94.40
11908;DHT22;6014;47.690;9.130;2023-07-13T13:47:22;27.70;93.70
11908;DHT22;6014;47.690;9.130;2023-07-13T13:49:56;28.30;93.90
11908;DHT22;6014;47.690;9.130;2023-07-13T13:52:45;28.40;90.80
11908;DHT22;6014;47.690;9.130;2023-07-13T13:55:14;28.90;90.70
11908;DHT22;6014;47.690;9.130;2023-07-13T13:57:43;29.10;88.50
11908;DHT22;6014;47.690;9.130;2023-07-13T14:00:12;28.70;89.90
11908;DHT22;6014;47.690;9.130;2023-07-13T14:02:43;28.60;91.50
11908;DHT22;6014;47.690;9.130;2023-07-13T14:05:18;28.40;89.50
11908;DHT22;6014;47.690;9.130;2023-07-13T14:07:51;28.90;88.30
11908;DHT22;6014;47.690;9.130;2023-07-13T14:10:20;29.00;87.20
11908;DHT22;6014;47.690;9.130;2023-07-13T14:12:51;29.20;86.40
11908;DHT22;6014;47.690;9.130;2023-07-13T14:15:22;28.60;84.30
11908;DHT22;6014;47.690;9.130;2023-07-13T14:17:52;28.80;83.60
11908;DHT22;6014;47.690;9.130;2023-07-13T14:20:22;28.70;83.70
11908;DHT22;6014;47.690;9.130;2023-07-13T14:22:53;29.30;84.30
11908;DHT22;6014;47.690;9.130;2023-07-13T14:25:22;28.10;84.80
11908;DHT22;6014;47.690;9.130;2023-07-13T14:27:53;28.20;85.50
11908;DHT22;6014;47.690;9.130;2023-07-13T14:30:26;28.40;87.30
11908;DHT22;6014;47.690;9.130;2023-07-13T14:33:00;29.00;81.50
11908;DHT22;6014;47.690;9.130;2023-07-13T14:35:29;28.60;82.50
11908;DHT22;6014;47.690;9.130;2023-07-13T14:37:59;29.00;79.80
11908;DHT22;6014;47.690;9.130;2023-07-13T14:40:29;29.60;82.10
11908;DHT22;6014;47.690;9.130;2023-07-13T14:42:59;28.80;86.00
11908;DHT22;6014;47.690;9.130;2023-07-13T14:45:28;29.00;82.20
11908;DHT22;6014;47.690;9.130;2023-07-13T14:47:58;29.20;81.70
11908;DHT22;6014;47.690;9.130;2023-07-13T14:50:31;28.90;82.20
11908;DHT22;6014;47.690;9.130;2023-07-13T14:53:01;28.50;84.70
11908;DHT22;6014;47.690;9.130;2023-07-13T14:55:29;28.20;85.80
11908;DHT22;6014;47.690;9.130;2023-07-13T14:57:58;28.20;84.60
11908;DHT22;6014;47.690;9.130;2023-07-13T15:00:27;28.20;85.50
11908;DHT22;6014;47.690;9.130;2023-07-13T15:03:00;27.60;85.40
11908;DHT22;6014;47.690;9.130;2023-07-13T15:05:30;27.80;84.60
11908;DHT22;6014;47.690;9.130;2023-07-13T15:08:02;28.40;84.10
11908;DHT22;6014;47.690;9.130;2023-07-13T15:10:33;27.60;85.70
11908;DHT22;6014;47.690;9.130;2023-07-13T15:13:14;27.80;89.20
11908;DHT22;6014;47.690;9.130;2023-07-13T15:15:45;28.00;88.80
11908;DHT22;6014;47.690;9.130;2023-07-13T15:18:16;28.20;85.50
11908;DHT22;6014;47.690;9.130;2023-07-13T15:20:48;27.80;86.30
11908;DHT22;6014;47.690;9.130;2023-07-13T15:23:18;27.80;86.80
11908;DHT22;6014;47.690;9.130;2023-07-13T15:25:46;27.50;85.40
11908;DHT22;6014;47.690;9.130;2023-07-13T15:28:15;27.40;88.80
11908;DHT22;6014;47.690;9.130;2023-07-13T15:30:45;27.50;88.70
11908;DHT22;6014;47.690;9.130;2023-07-13T15:33:16;27.70;87.20
11908;DHT22;6014;47.690;9.130;2023-07-13T15:35:46;27.30;87.20
11908;DHT22;6014;47.690;9.130;2023-07-13T15:38:19;27.20;87.80
11908;DHT22;6014;47.690;9.130;2023-07-13T15:44:24;28.30;86.90
11908;DHT22;6014;47.690;9.130;2023-07-13T15:46:54;27.60;88.10
11908;DHT22;6014;47.690;9.130;2023-07-13T15:49:23;27.30;85.50
11908;DHT22;6014;47.690;9.130;2023-07-13T15:51:51;27.70;86.90
11908;DHT22;6014;47.690;9.130;2023-07-13T15:54:22;27.60;86.20
11908;DHT22;6014;47.690;9.130;2023-07-13T15:56:53;27.60;82.60
11908;DHT22;6014;47.690;9.130;2023-07-13T15:59:22;27.60;81.40
11908;DHT22;6014;47.690;9.130;2023-07-13T16:01:51;27.70;83.50
11908;DHT22;6014;47.690;9.130;2023-07-13T16:04:19;27.80;84.20
11908;DHT22;6014;47.690;9.130;2023-07-13T16:06:48;28.30;83.30
11908;DHT22;6014;47.690;9.130;2023-07-13T16:09:21;28.60;84.90
11908;DHT22;6014;47.690;9.130;2023-07-13T16:12:09;28.10;74.80
11908;DHT22;6014;47.690;9.130;2023-07-13T16:14:38;29.00;72.70
11908;DHT22;6014;47.690;9.130;2023-07-13T16:17:16;29.30;72.10
11908;DHT22;6014;47.690;9.130;2023-07-13T16:19:44;28.30;72.70
11908;DHT22;6014;47.690;9.130;2023-07-13T16:22:15;29.10;70.80